sensor_id;sensor_type;location;lat;lon;timestamp;pressure;altitude;pressure_sealevel;temperature;humidity
19112;BME280;9688;51.906;8.376;2023-12-20T00:00:28;100444.50;;;9.08;100.00
19112;BME280;9688;51.906;8.376;2023-12-20T00:03:14;100439.19;;;9.09;100.00
19112;BME280;9688;51.906;8.376;2023-12-20T00:06:01;100442.59;;;9.11;100.00
19112;BME280;9688;51.906;8.376;2023-12-20T00:08:46;100443.56;;;9.09;100.00
19112;BME280;9688;51.906;8.376;2023-12-20T00:11:32;100445.34;;;9.08;100.00
19112;BME280;9688;51.906;8.376;2023-12-20T00:14:18;100454.19;;;9.07;100.00
19112;BME280;9688;51.906;8.376;2023-12-20T00:17:04;100454.22;;;9.06;100.00
19112;BME280;9688;51.906;8.376;2023-12-20T00:19:50;100457.91;;;9.02;100.00
19112;BME280;9688;51.906;8.376;2023-12-20T00:22:37;100452.84;;;8.96;100.00
19112;BME280;9688;51.906;8.376;2023-12-20T00:25:22;100459.97;;;8.92;100.00
19112;BME280;9688;51.906;8.376;2023-12-20T00:28:08;100452.16;;;8.89;100.00
19112;BME280;9688;51.906;8.376;2023-12-20T00:30:54;100463.69;;;8.86;100.00
19112;BME280;9688;51.906;8.376;2023-12-20T00:33:39;100470.81;;;8.84;100.00
19112;BME280;9688;51.906;8.376;2023-12-20T00:36:27;100463.06;;;8.78;100.00
19112;BME280;9688;51.906;8.376;2023-12-20T00:39:14;100471.19;;;8.72;100.00
19112;BME280;9688;51.906;8.376;2023-12-20T00:42:00;100479.31;;;8.66;100.00
19112;BME280;9688;51.906;8.376;2023-12-20T00:44:45;100466.25;;;8.63;100.00
19112;BME280;9688;51.906;8.376;2023-12-20T00:47:31;100471.75;;;8.55;100.00
19112;BME280;9688;51.906;8.376;2023-12-20T00:50:17;100461.41;;;8.49;100.00
19112;BME280;9688;51.906;8.376;2023-12-20T00:53:03;100466.00;;;8.42;100.00
19112;BME280;9688;51.906;8.376;2023-12-20T00:55:51;100463.50;;;8.38;100.00
19112;BME280;9688;51.906;8.376;2023-12-20T00:58:36;100470.56;;;8.37;100.00
19112;BME280;9688;51.906;8.376;2023-12-20T01:01:22;100470.59;;;8.36;100.00
19112;BME280;9688;51.906;8.376;2023-12-20T01:04:08;100475.84;;;8.36;100.00
19112;BME280;9688;51.906;8.376;2023-12-20T01:06:54;100478.59;;;8.33;100.00
19112;BME280;9688;51.906;8.376;2023-12-20T01:09:39;100479.53;;;8.30;100.00
19112;BME280;9688;51.906;8.376;2023-12-20T01:12:26;100473.44;;;8.28;100.00
19112;BME280;9688;51.906;8.376;2023-12-20T01:15:12;100477.03;;;8.25;100.00
19112;BME280;9688;51.906;8.376;2023-12-20T01:17:58;100477.22;;;8.21;100.00
19112;BME280;9688;51.906;8.376;2023-12-20T01:20:43;100477.13;;;8.22;100.00
19112;BME280;9688;51.906;8.376;2023-12-20T01:23:29;100494.63;;;8.25;100.00
19112;BME280;9688;51.906;8.376;2023-12-20T01:26:15;100490.31;;;8.22;100.00
19112;BME280;9688;51.906;8.376;2023-12-20T01:29:02;100478.97;;;8.20;100.00
19112;BME280;9688;51.906;8.376;2023-12-20T01:31:48;100491.44;;;8.15;100.00
19112;BME280;9688;51.906;8.376;2023-12-20T01:34:34;100494.06;;;8.15;100.00
19112;BME280;9688;51.906;8.376;2023-12-20T01:37:20;100495.78;;;8.16;100.00
19112;BME280;9688;51.906;8.376;2023-12-20T01:40:09;100490.50;;;8.16;100.00
19112;BME280;9688;51.906;8.376;2023-12-20T01:42:58;100495.00;;;8.13;100.00
19112;BME280;9688;51.906;8.376;2023-12-20T01:45:46;100497.66;;;8.11;100.00
19112;BME280;9688;51.906;8.376;2023-12-20T01:48:31;100507.56;;;8.03;100.00
19112;BME280;9688;51.906;8.376;2023-12-20T01:51:18;100508.69;;;7.96;100.00
19112;BME280;9688;51.906;8.376;2023-12-20T01:54:04;100505.34;;;7.89;100.00
19112;BME280;9688;51.906;8.376;2023-12-20T01:56:50;100514.16;;;7.88;100.00
19112;BME280;9688;51.906;8.376;2023-12-20T01:59:39;100497.59;;;7.85;100.00
19112;BME280;9688;51.906;8.376;2023-12-20T02:02:27;100503.75;;;7.83;100.00
19112;BME280;9688;51.906;8.376;2023-12-20T02:05:14;100503.84;;;7.80;100.00
19112;BME280;9688;51.906;8.376;2023-12-20T02:08:00;100497.00;;;7.75;100.00
19112;BME280;9688;51.906;8.376;2023-12-20T02:10:46;100486.59;;;7.70;100.00
19112;BME280;9688;51.906;8.376;2023-12-20T02:13:32;100486.66;;;7.69;100.00
19112;BME280;9688;51.906;8.376;2023-12-20T02:16:18;100491.94;;;7.67;100.00
19112;BME280;9688;51.906;8.376;2023-12-20T02:19:09;100481.50;;;7.64;100.00
19112;BME280;9688;51.906;8.376;2023-12-20T02:22:08;100469.41;;;7.58;100.00
19112;BME280;9688;51.906;8.376;2023-12-20T02:24:53;100470.41;;;7.54;100.00
19112;BME280;9688;51.906;8.376;2023-12-20T02:27:39;100474.06;;;7.49;100.00
19112;BME280;9688;51.906;8.376;2023-12-20T02:30:26;100475.97;;;7.44;100.00
19112;BME280;9688;51.906;8.376;2023-12-20T02:33:12;100469.09;;;7.38;100.00
19112;BME280;9688;51.906;8.376;2023-12-20T02:35:59;100469.13;;;7.36;100.00
19112;BME280;9688;51.906;8.376;2023-12-20T02:38:46;100469.19;;;7.35;100.00
19112;BME280;9688;51.906;8.376;2023-12-20T02:41:32;100477.09;;;7.35;100.00
19112;BME280;9688;51.906;8.376;2023-12-20T02:44:18;100469.38;;;7.29;100.00
19112;BME280;9688;51.906;8.376;2023-12-20T02:47:04;100467.81;;;7.20;100.00
19112;BME280;9688;51.906;8.376;2023-12-20T02:49:49;100473.25;;;7.14;100.00
19112;BME280;9688;51.906;8.376;2023-12-20T02:52:37;100471.66;;;7.08;100.00
19112;BME280;9688;51.906;8.376;2023-12-20T02:55:24;100474.28;;;7.08;100.00
19112;BME280;9688;51.906;8.376;2023-12-20T02:58:09;100472.41;;;7.13;100.00
19112;BME280;9688;51.906;8.376;2023-12-20T03:00:55;100460.09;;;7.15;100.00
19112;BME280;9688;51.906;8.376;2023-12-20T03:03:41;100461.78;;;7.18;100.00
19112;BME280;9688;51.906;8.376;2023-12-20T03:06:26;100467.81;;;7.20;100.00
19112;BME280;9688;51.906;8.376;2023-12-20T03:09:12;100473.16;;;7.19;100.00
19112;BME280;9688;51.906;8.376;2023-12-20T03:11:59;100462.75;;;7.14;100.00
19112;BME280;9688;51.906;8.376;2023-12-20T03:14:45;100465.28;;;7.17;100.00
19112;BME280;9688;51.906;8.376;2023-12-20T03:17:31;100466.94;;;7.21;100.00
19112;BME280;9688;51.906;8.376;2023-12-20T03:20:16;100463.28;;;7.27;100.00
19112;BME280;9688;51.906;8.376;2023-12-20T03:23:02;100464.97;;;7.29;100.00
19112;BME280;9688;51.906;8.376;2023-12-20T03:25:48;100461.34;;;7.33;100.00
19112;BME280;9688;51.906;8.376;2023-12-20T03:28:36;100458.63;;;7.36;100.00
19112;BME280;9688;51.906;8.376;2023-12-20T03:31:22;100460.31;;;7.39;100.00
19112;BME280;9688;51.906;8.376;2023-12-20T03:34:08;100464.59;;;7.43;100.00
19112;BME280;9688;51.906;8.376;2023-12-20T03:36:53;100472.38;;;7.46;100.00
19112;BME280;9688;51.906;8.376;2023-12-20T03:39:39;100469.75;;;7.46;100.00
19112;BME280;9688;51.906;8.376;2023-12-20T03:42:24;100466.28;;;7.46;100.00
19112;BME280;9688;51.906;8.376;2023-12-20T03:45:12;100460.88;;;7.50;100.00
19112;BME280;9688;51.906;8.376;2023-12-20T03:47:57;100461.72;;;7.51;100.00
19112;BME280;9688;51.906;8.376;2023-12-20T03:50:43;100468.75;;;7.50;100.00
19112;BME280;9688;51.906;8.376;2023-12-20T03:53:29;100450.50;;;7.46;100.00
19112;BME280;9688;51.906;8.376;2023-12-20T03:56:14;100440.13;;;7.40;100.00
19112;BME280;9688;51.906;8.376;2023-12-20T03:59:00;100448.06;;;7.38;100.00
19112;BME280;9688;51.906;8.376;2023-12-20T04:01:47;100456.78;;;7.40;100.00
19112;BME280;9688;51.906;8.376;2023-12-20T04:04:33;100447.97;;;7.41;100.00
19112;BME280;9688;51.906;8.376;2023-12-20T04:07:19;100441.88;;;7.41;100.00
19112;BME280;9688;51.906;8.376;2023-12-20T04:10:09;100443.69;;;7.37;100.00
19112;BME280;9688;51.906;8.376;2023-12-20T04:12:55;100441.97;;;7.36;100.00
19112;BME280;9688;51.906;8.376;2023-12-20T04:15:40;100441.13;;;7.35;100.00
19112;BME280;9688;51.906;8.376;2023-12-20T04:18:27;100435.03;;;7.33;100.00
19112;BME280;9688;51.906;8.376;2023-12-20T04:21:13;100435.13;;;7.30;100.00
19112;BME280;9688;51.906;8.376;2023-12-20T04:23:59;100439.41;;;7.34;100.00
19112;BME280;9688;51.906;8.376;2023-12-20T04:26:44;100433.19;;;7.37;100.00
19112;BME280;9688;51.906;8.376;2023-12-20T04:29:30;100436.69;;;7.37;100.00
19112;BME280;9688;51.906;8.376;2023-12-20T04:32:16;100438.38;;;7.40;100.00
19112;BME280;9688;51.906;8.376;2023-12-20T04:35:04;100442.75;;;7.40;100.00
19112;BME280;9688;51.906;8.376;2023-12-20T04:37:50;100445.38;;;7.40;100.00
19112;BME280;9688;51.906;8.376;2023-12-20T04:40:35;100443.66;;;7.38;100.00
19112;BME280;9688;51.906;8.376;2023-12-20T04:43:21;100448.00;;;7.40;100.00
19112;BME280;9688;51.906;8.376;2023-12-20T04:46:07;100439.19;;;7.42;100.00
19112;BME280;9688;51.906;8.376;2023-12-20T04:48:52;100433.03;;;7.43;100.00
19112;BME280;9688;51.906;8.376;2023-12-20T04:51:39;100431.38;;;7.39;100.00
19112;BME280;9688;51.906;8.376;2023-12-20T04:54:25;100439.28;;;7.39;100.00
19112;BME280;9688;51.906;8.376;2023-12-20T04:57:11;100438.38;;;7.40;100.00
19112;BME280;9688;51.906;8.376;2023-12-20T04:59:56;100445.25;;;7.44;100.00
19112;BME280;9688;51.906;8.376;2023-12-20T05:02:42;100451.34;;;7.46;100.00
19112;BME280;9688;51.906;8.376;2023-12-20T05:05:28;100446.97;;;7.45;100.00
19112;BME280;9688;51.906;8.376;2023-12-20T05:08:15;100440.00;;;7.44;100.00
19112;BME280;9688;51.906;8.376;2023-12-20T05:11:01;100434.75;;;7.44;100.00
19112;BME280;9688;51.906;8.376;2023-12-20T05:13:50;100420.75;;;7.44;100.00
19112;BME280;9688;51.906;8.376;2023-12-20T05:16:35;100433.13;;;7.40;100.00
19112;BME280;9688;51.906;8.376;2023-12-20T05:19:21;100427.88;;;7.40;100.00
19112;BME280;9688;51.906;8.376;2023-12-20T05:22:07;100431.34;;;7.41;100.00
19112;BME280;9688;51.906;8.376;2023-12-20T05:24:54;100420.81;;;7.41;100.00
19112;BME280;9688;51.906;8.376;2023-12-20T05:27:40;100413.81;;;7.40;100.00
19112;BME280;9688;51.906;8.376;2023-12-20T05:30:25;100419.09;;;7.40;100.00
19112;BME280;9688;51.906;8.376;2023-12-20T05:33:11;100427.81;;;7.42;100.00
19112;BME280;9688;51.906;8.376;2023-12-20T05:35:59;100439.16;;;7.44;100.00
19112;BME280;9688;51.906;8.376;2023-12-20T05:38:45;100430.34;;;7.45;100.00
19112;BME280;9688;51.906;8.376;2023-12-20T05:41:32;100438.22;;;7.45;100.00
19112;BME280;9688;51.906;8.376;2023-12-20T05:44:17;100439.16;;;7.44;100.00
19112;BME280;9688;51.906;8.376;2023-12-20T05:47:03;100434.78;;;7.43;100.00
19112;BME280;9688;51.906;8.376;2023-12-20T05:49:49;100432.16;;;7.43;100.00
19112;BME280;9688;51.906;8.376;2023-12-20T05:52:35;100426.88;;;7.43;100.00
19112;BME280;9688;51.906;8.376;2023-12-20T05:55:21;100442.75;;;7.40;100.00
19112;BME280;9688;51.906;8.376;2023-12-20T05:58:08;100434.00;;;7.39;100.00
19112;BME280;9688;51.906;8.376;2023-12-20T06:00:54;100446.28;;;7.40;100.00
19112;BME280;9688;51.906;8.376;2023-12-20T06:03:41;100440.94;;;7.42;100.00
19112;BME280;9688;51.906;8.376;2023-12-20T06:06:27;100439.09;;;7.45;100.00
19112;BME280;9688;51.906;8.376;2023-12-20T06:09:12;100434.72;;;7.46;100.00
19112;BME280;9688;51.906;8.376;2023-12-20T06:11:59;100437.41;;;7.43;100.00
19112;BME280;9688;51.906;8.376;2023-12-20T06:14:47;100435.81;;;7.37;100.00
19112;BME280;9688;51.906;8.376;2023-12-20T06:17:33;100451.69;;;7.34;100.00
19112;BME280;9688;51.906;8.376;2023-12-20T06:20:19;100446.47;;;7.32;100.00
19112;BME280;9688;51.906;8.376;2023-12-20T06:23:05;100443.00;;;7.32;100.00
19112;BME280;9688;51.906;8.376;2023-12-20T06:25:50;100449.03;;;7.35;100.00
19112;BME280;9688;51.906;8.376;2023-12-20T06:28:36;100438.44;;;7.37;100.00
19112;BME280;9688;51.906;8.376;2023-12-20T06:31:24;100438.53;;;7.34;100.00
19112;BME280;9688;51.906;8.376;2023-12-20T06:34:10;100441.13;;;7.35;100.00
19112;BME280;9688;51.906;8.376;2023-12-20T06:36:55;100435.81;;;7.37;100.00
19112;BME280;9688;51.906;8.376;2023-12-20T06:39:41;100425.25;;;7.38;100.00
19112;BME280;9688;51.906;8.376;2023-12-20T06:42:27;100427.13;;;7.35;100.00
19112;BME280;9688;51.906;8.376;2023-12-20T06:45:13;100429.75;;;7.35;100.00
19112;BME280;9688;51.906;8.376;2023-12-20T06:48:00;100432.41;;;7.33;100.00
19112;BME280;9688;51.906;8.376;2023-12-20T06:50:46;100439.44;;;7.33;100.00
19112;BME280;9688;51.906;8.376;2023-12-20T06:53:32;100432.38;;;7.35;100.00
19112;BME280;9688;51.906;8.376;2023-12-20T06:56:18;100420.09;;;7.35;100.00
19112;BME280;9688;51.906;8.376;2023-12-20T06:59:04;100433.25;;;7.35;100.00
19112;BME280;9688;51.906;8.376;2023-12-20T07:01:51;100439.28;;;7.39;100.00
19112;BME280;9688;51.906;8.376;2023-12-20T07:04:41;100437.41;;;7.43;100.00
19112;BME280;9688;51.906;8.376;2023-12-20T07:07:26;100439.97;;;7.46;100.00
19112;BME280;9688;51.906;8.376;2023-12-20T07:10:13;100440.69;;;7.51;100.00
19112;BME280;9688;51.906;8.376;2023-12-20T07:12:58;100434.56;;;7.50;100.00
19112;BME280;9688;51.906;8.376;2023-12-20T07:15:44;100445.94;;;7.51;100.00
19112;BME280;9688;51.906;8.376;2023-12-20T07:18:30;100444.22;;;7.50;100.00
19112;BME280;9688;51.906;8.376;2023-12-20T07:21:18;100424.19;;;7.46;100.00
19112;BME280;9688;51.906;8.376;2023-12-20T07:24:03;100432.16;;;7.43;100.00
19112;BME280;9688;51.906;8.376;2023-12-20T07:26:49;100431.19;;;7.45;100.00
19112;BME280;9688;51.906;8.376;2023-12-20T07:29:36;100426.81;;;7.46;100.00
19112;BME280;9688;51.906;8.376;2023-12-20T07:32:24;100425.94;;;7.45;100.00
19112;BME280;9688;51.906;8.376;2023-12-20T07:35:10;100425.94;;;7.45;100.00
19112;BME280;9688;51.906;8.376;2023-12-20T07:37:58;100426.81;;;7.46;100.00
19112;BME280;9688;51.906;8.376;2023-12-20T07:40:43;100433.03;;;7.43;100.00
19112;BME280;9688;51.906;8.376;2023-12-20T07:43:29;100430.31;;;7.46;100.00
19112;BME280;9688;51.906;8.376;2023-12-20T07:46:15;100429.38;;;7.49;100.00
19112;BME280;9688;51.906;8.376;2023-12-20T07:49:02;100446.84;;;7.50;100.00
19112;BME280;9688;51.906;8.376;2023-12-20T07:51:48;100447.59;;;7.55;100.00
19112;BME280;9688;51.906;8.376;2023-12-20T07:54:35;100447.50;;;7.58;100.00
19112;BME280;9688;51.906;8.376;2023-12-20T07:57:21;100440.47;;;7.58;100.00
19112;BME280;9688;51.906;8.376;2023-12-20T08:00:08;100439.59;;;7.58;100.00
19112;BME280;9688;51.906;8.376;2023-12-20T08:02:54;100446.59;;;7.59;100.00
19112;BME280;9688;51.906;8.376;2023-12-20T08:05:40;100439.50;;;7.61;100.00
19112;BME280;9688;51.906;8.376;2023-12-20T08:08:26;100444.69;;;7.64;100.00
19112;BME280;9688;51.906;8.376;2023-12-20T08:11:20;100428.88;;;7.66;100.00
19112;BME280;9688;51.906;8.376;2023-12-20T08:14:06;100431.41;;;7.69;100.00
19112;BME280;9688;51.906;8.376;2023-12-20T08:16:53;100422.69;;;7.67;100.00
19112;BME280;9688;51.906;8.376;2023-12-20T08:19:39;100414.88;;;7.64;100.00
19112;BME280;9688;51.906;8.376;2023-12-20T08:22:26;100424.47;;;7.66;100.00
19112;BME280;9688;51.906;8.376;2023-12-20T08:25:11;100428.81;;;7.67;100.00
19112;BME280;9688;51.906;8.376;2023-12-20T08:27:59;100427.84;;;7.70;100.00
19112;BME280;9688;51.906;8.376;2023-12-20T08:30:45;100419.16;;;7.68;100.00
19112;BME280;9688;51.906;8.376;2023-12-20T08:33:30;100414.75;;;7.68;100.00
19112;BME280;9688;51.906;8.376;2023-12-20T08:36:16;100431.34;;;7.70;100.00
19112;BME280;9688;51.906;8.376;2023-12-20T08:39:02;100420.78;;;7.72;100.00
19112;BME280;9688;51.906;8.376;2023-12-20T08:41:51;100418.91;;;7.75;100.00
19112;BME280;9688;51.906;8.376;2023-12-20T08:44:38;100410.13;;;7.76;100.00
19112;BME280;9688;51.906;8.376;2023-12-20T08:47:24;100415.25;;;7.81;100.00
19112;BME280;9688;51.906;8.376;2023-12-20T08:50:11;100416.06;;;7.83;100.00
19112;BME280;9688;51.906;8.376;2023-12-20T08:53:00;100408.06;;;7.86;100.00
19112;BME280;9688;51.906;8.376;2023-12-20T08:55:46;100400.16;;;7.86;100.00
19112;BME280;9688;51.906;8.376;2023-12-20T08:58:36;100404.59;;;7.86;100.00
19112;BME280;9688;51.906;8.376;2023-12-20T09:01:23;100413.28;;;7.88;100.00
19112;BME280;9688;51.906;8.376;2023-12-20T09:04:09;100392.03;;;7.94;100.00
19112;BME280;9688;51.906;8.376;2023-12-20T09:06:55;100396.44;;;7.93;100.00
19112;BME280;9688;51.906;8.376;2023-12-20T09:09:41;100397.22;;;7.97;100.00
19112;BME280;9688;51.906;8.376;2023-12-20T09:12:27;100378.69;;;8.00;100.00
19112;BME280;9688;51.906;8.376;2023-12-20T09:15:14;100384.88;;;7.99;100.00
19112;BME280;9688;51.906;8.376;2023-12-20T09:18:02;100372.78;;;7.93;100.00
19112;BME280;9688;51.906;8.376;2023-12-20T09:20:48;100358.81;;;7.90;100.00
19112;BME280;9688;51.906;8.376;2023-12-20T09:23:34;100369.53;;;7.83;100.00
19112;BME280;9688;51.906;8.376;2023-12-20T09:26:21;100372.06;;;7.87;100.00
19112;BME280;9688;51.906;8.376;2023-12-20T09:29:07;100360.50;;;7.92;100.00
19112;BME280;9688;51.906;8.376;2023-12-20T09:31:53;100366.53;;;7.96;100.00
19112;BME280;9688;51.906;8.376;2023-12-20T09:34:42;100356.03;;;7.96;100.00
19112;BME280;9688;51.906;8.376;2023-12-20T09:37:28;100357.69;;;7.98;100.00
19112;BME280;9688;51.906;8.376;2023-12-20T09:40:13;100351.41;;;8.02;100.00
19112;BME280;9688;51.906;8.376;2023-12-20T09:43:03;100335.47;;;8.07;100.00
19112;BME280;9688;51.906;8.376;2023-12-20T09:45:53;100328.28;;;8.12;100.00
19112;BME280;9688;51.906;8.376;2023-12-20T09:48:40;100334.44;;;8.11;100.00
19112;BME280;9688;51.906;8.376;2023-12-20T09:51:30;100342.34;;;8.11;100.00
19112;BME280;9688;51.906;8.376;2023-12-20T09:54:18;100337.16;;;8.10;100.00
19112;BME280;9688;51.906;8.376;2023-12-20T09:57:04;100343.25;;;8.10;100.00
19112;BME280;9688;51.906;8.376;2023-12-20T09:59:50;100352.06;;;8.09;100.00
19112;BME280;9688;51.906;8.376;2023-12-20T10:02:38;100347.72;;;8.08;100.00
19112;BME280;9688;51.906;8.376;2023-12-20T10:05:28;100340.66;;;8.09;100.00
19112;BME280;9688;51.906;8.376;2023-12-20T10:08:16;100347.69;;;8.10;100.00
19112;BME280;9688;51.906;8.376;2023-12-20T10:11:02;100353.72;;;8.12;100.00
19112;BME280;9688;51.906;8.376;2023-12-20T10:13:48;100350.13;;;8.14;100.00
19112;BME280;9688;51.906;8.376;2023-12-20T10:16:34;100339.59;;;8.14;100.00
19112;BME280;9688;51.906;8.376;2023-12-20T10:19:19;100326.53;;;8.11;100.00
19112;BME280;9688;51.906;8.376;2023-12-20T10:22:05;100322.13;;;8.12;100.00
19112;BME280;9688;51.906;8.376;2023-12-20T10:24:53;100328.34;;;8.09;100.00
19112;BME280;9688;51.906;8.376;2023-12-20T10:27:38;100330.97;;;8.11;100.00
19112;BME280;9688;51.906;8.376;2023-12-20T10:30:24;100314.09;;;8.16;100.00
19112;BME280;9688;51.906;8.376;2023-12-20T10:33:10;100336.78;;;8.20;100.00
19112;BME280;9688;51.906;8.376;2023-12-20T10:35:56;100326.06;;;8.26;100.00
19112;BME280;9688;51.906;8.376;2023-12-20T10:38:44;100322.38;;;8.31;100.00
19112;BME280;9688;51.906;8.376;2023-12-20T10:41:32;100319.75;;;8.31;100.00
19112;BME280;9688;51.906;8.376;2023-12-20T10:44:19;100325.03;;;8.31;100.00
19112;BME280;9688;51.906;8.376;2023-12-20T10:47:06;100317.94;;;8.33;100.00
19112;BME280;9688;51.906;8.376;2023-12-20T10:49:52;100324.88;;;8.35;100.00
19112;BME280;9688;51.906;8.376;2023-12-20T10:52:39;100309.81;;;8.40;100.00
19112;BME280;9688;51.906;8.376;2023-12-20T10:55:26;100315.13;;;8.39;100.00
19112;BME280;9688;51.906;8.376;2023-12-20T10:58:15;100321.28;;;8.38;100.00
19112;BME280;9688;51.906;8.376;2023-12-20T11:01:02;100322.16;;;8.37;100.00
19112;BME280;9688;51.906;8.376;2023-12-20T11:03:52;100313.38;;;8.38;100.00
19112;BME280;9688;51.906;8.376;2023-12-20T11:06:45;100302.03;;;8.36;100.00
19112;BME280;9688;51.906;8.376;2023-12-20T11:09:40;100317.81;;;8.36;100.00
19112;BME280;9688;51.906;8.376;2023-12-20T11:12:36;100302.84;;;8.38;100.00
19112;BME280;9688;51.906;8.376;2023-12-20T11:15:25;100319.41;;;8.41;100.00
19112;BME280;9688;51.906;8.376;2023-12-20T11:18:12;100327.22;;;8.44;100.00
19112;BME280;9688;51.906;8.376;2023-12-20T11:21:02;100315.81;;;8.44;100.00
19112;BME280;9688;51.906;8.376;2023-12-20T11:23:49;100317.50;;;8.46;100.00
19112;BME280;9688;51.906;8.376;2023-12-20T11:26:35;100313.91;;;8.49;100.00
19112;BME280;9688;51.906;8.376;2023-12-20T11:29:31;100310.22;;;8.53;100.00
19112;BME280;9688;51.906;8.376;2023-12-20T11:32:34;100300.47;;;8.57;100.00
19112;BME280;9688;51.906;8.376;2023-12-20T11:35:20;100302.13;;;8.59;100.00
19112;BME280;9688;51.906;8.376;2023-12-20T11:38:08;100293.41;;;8.57;100.00
19112;BME280;9688;51.906;8.376;2023-12-20T11:40:55;100281.78;;;8.63;100.00
19112;BME280;9688;51.906;8.376;2023-12-20T11:43:42;100279.19;;;8.61;100.00
19112;BME280;9688;51.906;8.376;2023-12-20T11:46:28;100264.47;;;8.56;100.00
19112;BME280;9688;51.906;8.376;2023-12-20T11:49:15;100277.88;;;8.49;100.00
19112;BME280;9688;51.906;8.376;2023-12-20T11:52:01;100266.25;;;8.55;100.00
19112;BME280;9688;51.906;8.376;2023-12-20T11:54:47;100273.06;;;8.61;100.00
19112;BME280;9688;51.906;8.376;2023-12-20T11:57:33;100272.69;;;8.71;100.00
19112;BME280;9688;51.906;8.376;2023-12-20T12:00:20;100271.25;;;8.86;100.00
19112;BME280;9688;51.906;8.376;2023-12-20T12:03:05;100264.00;;;8.93;100.00
19112;BME280;9688;51.906;8.376;2023-12-20T12:05:53;100249.88;;;8.94;100.00
19112;BME280;9688;51.906;8.376;2023-12-20T12:08:39;100246.31;;;8.95;100.00
19112;BME280;9688;51.906;8.376;2023-12-20T12:11:25;100262.91;;;8.99;100.00
19112;BME280;9688;51.906;8.376;2023-12-20T12:14:11;100258.38;;;9.02;100.00
19112;BME280;9688;51.906;8.376;2023-12-20T12:16:57;100261.69;;;9.07;100.00
19112;BME280;9688;51.906;8.376;2023-12-20T12:19:45;100239.69;;;9.08;100.00
19112;BME280;9688;51.906;8.376;2023-12-20T12:22:35;100237.16;;;9.05;100.00
19112;BME280;9688;51.906;8.376;2023-12-20T12:25:22;100250.47;;;9.02;100.00
19112;BME280;9688;51.906;8.376;2023-12-20T12:28:08;100261.94;;;9.01;100.00
19112;BME280;9688;51.906;8.376;2023-12-20T12:30:57;100244.47;;;8.99;100.00
19112;BME280;9688;51.906;8.376;2023-12-20T12:33:43;100250.69;;;8.96;100.00
19112;BME280;9688;51.906;8.376;2023-12-20T12:36:29;100249.97;;;8.92;100.00
19112;BME280;9688;51.906;8.376;2023-12-20T12:39:18;100244.69;;;8.92;100.00
19112;BME280;9688;51.906;8.376;2023-12-20T12:42:04;100227.94;;;8.93;100.00
19112;BME280;9688;51.906;8.376;2023-12-20T12:44:51;100230.41;;;8.98;100.00
19112;BME280;9688;51.906;8.376;2023-12-20T12:47:38;100229.38;;;9.02;100.00
19112;BME280;9688;51.906;8.376;2023-12-20T12:50:24;100231.06;;;9.03;100.00
19112;BME280;9688;51.906;8.376;2023-12-20T12:53:10;100237.97;;;9.07;100.00
19112;BME280;9688;51.906;8.376;2023-12-20T12:55:57;100219.50;;;9.07;100.00
19112;BME280;9688;51.906;8.376;2023-12-20T12:58:43;100223.81;;;9.10;100.00
19112;BME280;9688;51.906;8.376;2023-12-20T13:01:29;100231.44;;;9.18;100.00
19112;BME280;9688;51.906;8.376;2023-12-20T13:04:15;100216.25;;;9.23;100.00
19112;BME280;9688;51.906;8.376;2023-12-20T13:07:02;100207.31;;;9.27;100.00
19112;BME280;9688;51.906;8.376;2023-12-20T13:09:49;100207.25;;;9.28;100.00
19112;BME280;9688;51.906;8.376;2023-12-20T13:12:37;100207.16;;;9.31;100.00
19112;BME280;9688;51.906;8.376;2023-12-20T13:15:23;100205.25;;;9.35;100.00
19112;BME280;9688;51.906;8.376;2023-12-20T13:18:10;100203.53;;;9.34;100.00
19112;BME280;9688;51.906;8.376;2023-12-20T13:20:57;100200.91;;;9.34;100.00
19112;BME280;9688;51.906;8.376;2023-12-20T13:23:42;100203.59;;;9.32;100.00
19112;BME280;9688;51.906;8.376;2023-12-20T13:26:29;100217.03;;;9.26;100.00
19112;BME280;9688;51.906;8.376;2023-12-20T13:29:17;100247.88;;;9.24;100.00
19112;BME280;9688;51.906;8.376;2023-12-20T13:32:03;100241.22;;;9.14;100.00
19112;BME280;9688;51.906;8.376;2023-12-20T13:34:50;100224.34;;;8.96;100.00
19112;BME280;9688;51.906;8.376;2023-12-20T13:37:36;100221.41;;;8.80;100.00
19112;BME280;9688;51.906;8.376;2023-12-20T13:40:21;100239.47;;;8.67;100.00
19112;BME280;9688;51.906;8.376;2023-12-20T13:43:08;100247.94;;;8.52;100.00
19112;BME280;9688;51.906;8.376;2023-12-20T13:45:56;100238.13;;;8.31;100.00
19112;BME280;9688;51.906;8.376;2023-12-20T13:48:41;100241.56;;;8.08;100.00
19112;BME280;9688;51.906;8.376;2023-12-20T13:51:27;100242.16;;;7.89;100.00
19112;BME280;9688;51.906;8.376;2023-12-20T13:54:14;100237.69;;;7.66;100.00
19112;BME280;9688;51.906;8.376;2023-12-20T13:57:04;100240.63;;;7.57;100.00
19112;BME280;9688;51.906;8.376;2023-12-20T13:59:51;100237.38;;;7.49;100.00
19112;BME280;9688;51.906;8.376;2023-12-20T14:02:38;100231.53;;;7.39;100.00
19112;BME280;9688;51.906;8.376;2023-12-20T14:05:24;100234.25;;;7.36;100.00
19112;BME280;9688;51.906;8.376;2023-12-20T14:08:14;100226.44;;;7.34;100.00
19112;BME280;9688;51.906;8.376;2023-12-20T14:11:15;100220.38;;;7.31;100.00
19112;BME280;9688;51.906;8.376;2023-12-20T14:14:02;100227.38;;;7.32;100.00
19112;BME280;9688;51.906;8.376;2023-12-20T14:16:52;100210.72;;;7.31;100.00
19112;BME280;9688;51.906;8.376;2023-12-20T14:19:48;100206.19;;;7.36;100.00
19112;BME280;9688;51.906;8.376;2023-12-20T14:22:36;100204.34;;;7.40;100.00
19112;BME280;9688;51.906;8.376;2023-12-20T14:25:22;100203.31;;;7.44;100.00
19112;BME280;9688;51.906;8.376;2023-12-20T14:32:05;100227.94;;;7.42;100.00
19112;BME280;9688;51.906;8.376;2023-12-20T14:34:54;100213.19;;;7.37;100.00
19112;BME280;9688;51.906;8.376;2023-12-20T14:37:41;100216.06;;;7.30;100.00
19112;BME280;9688;51.906;8.376;2023-12-20T14:40:28;100205.63;;;7.27;100.00
19112;BME280;9688;51.906;8.376;2023-12-20T14:43:14;100208.25;;;7.27;100.00
19112;BME280;9688;51.906;8.376;2023-12-20T14:46:01;100209.22;;;7.24;100.00